sensor_id;sensor_type;location;lat;lon;timestamp;P1;durP1;ratioP1;P2;durP2;ratioP2
28605;SDS011;46498;49.968;7.754;2022-11-11T00:03:15;5.57;;;1.55;;
28605;SDS011;46498;49.968;7.754;2022-11-11T00:08:41;7.22;;;2.00;;
28605;SDS011;46498;49.968;7.754;2022-11-11T00:14:01;7.05;;;1.20;;
28605;SDS011;46498;49.968;7.754;2022-11-11T00:19:21;5.97;;;1.35;;
28605;SDS011;46498;49.968;7.754;2022-11-11T00:24:59;3.50;;;1.40;;
28605;SDS011;46498;49.968;7.754;2022-11-11T00:30:24;8.68;;;2.28;;
28605;SDS011;46498;49.968;7.754;2022-11-11T00:35:44;9.93;;;1.80;;
28605;SDS011;46498;49.968;7.754;2022-11-11T00:41:17;8.80;;;1.48;;
28605;SDS011;46498;49.968;7.754;2022-11-11T00:46:38;6.45;;;1.70;;
28605;SDS011;46498;49.968;7.754;2022-11-11T00:52:17;8.48;;;1.80;;
28605;SDS011;46498;49.968;7.754;2022-11-11T00:57:37;9.68;;;1.75;;
28605;SDS011;46498;49.968;7.754;2022-11-11T01:02:57;12.75;;;2.42;;
28605;SDS011;46498;49.968;7.754;2022-11-11T01:08:17;6.68;;;2.03;;
28605;SDS011;46498;49.968;7.754;2022-11-11T01:13:36;4.50;;;1.87;;
28605;SDS011;46498;49.968;7.754;2022-11-11T01:18:56;11.98;;;2.45;;
28605;SDS011;46498;49.968;7.754;2022-11-11T01:24:15;7.75;;;1.90;;
28605;SDS011;46498;49.968;7.754;2022-11-11T01:29:35;7.93;;;2.33;;
28605;SDS011;46498;49.968;7.754;2022-11-11T01:34:54;4.72;;;1.40;;
28605;SDS011;46498;49.968;7.754;2022-11-11T01:40:14;5.80;;;1.30;;
28605;SDS011;46498;49.968;7.754;2022-11-11T01:51:20;6.03;;;1.80;;
28605;SDS011;46498;49.968;7.754;2022-11-11T01:57:01;8.13;;;1.35;;
28605;SDS011;46498;49.968;7.754;2022-11-11T02:02:28;8.65;;;1.30;;
28605;SDS011;46498;49.968;7.754;2022-11-11T02:07:56;4.10;;;0.88;;
28605;SDS011;46498;49.968;7.754;2022-11-11T02:13:18;3.08;;;1.10;;
28605;SDS011;46498;49.968;7.754;2022-11-11T02:18:56;3.20;;;0.90;;
28605;SDS011;46498;49.968;7.754;2022-11-11T02:24:17;5.82;;;1.42;;
28605;SDS011;46498;49.968;7.754;2022-11-11T02:29:40;7.97;;;1.67;;
28605;SDS011;46498;49.968;7.754;2022-11-11T02:35:01;6.45;;;1.58;;
28605;SDS011;46498;49.968;7.754;2022-11-11T02:40:25;9.13;;;1.70;;
28605;SDS011;46498;49.968;7.754;2022-11-11T02:45:51;5.30;;;1.45;;
28605;SDS011;46498;49.968;7.754;2022-11-11T02:51:14;3.40;;;1.40;;
28605;SDS011;46498;49.968;7.754;2022-11-11T02:56:33;4.60;;;1.27;;
28605;SDS011;46498;49.968;7.754;2022-11-11T03:02:11;6.65;;;1.50;;
28605;SDS011;46498;49.968;7.754;2022-11-11T03:07:32;6.18;;;1.50;;
28605;SDS011;46498;49.968;7.754;2022-11-11T03:12:51;4.37;;;0.98;;
28605;SDS011;46498;49.968;7.754;2022-11-11T03:18:11;6.97;;;1.00;;
28605;SDS011;46498;49.968;7.754;2022-11-11T03:23:31;5.75;;;1.10;;
28605;SDS011;46498;49.968;7.754;2022-11-11T03:28:51;8.25;;;1.08;;
28605;SDS011;46498;49.968;7.754;2022-11-11T03:34:10;4.57;;;0.70;;
28605;SDS011;46498;49.968;7.754;2022-11-11T03:39:39;4.00;;;0.85;;
28605;SDS011;46498;49.968;7.754;2022-11-11T03:44:58;6.10;;;0.93;;
28605;SDS011;46498;49.968;7.754;2022-11-11T03:50:18;6.12;;;0.80;;
28605;SDS011;46498;49.968;7.754;2022-11-11T03:55:37;2.55;;;0.90;;
28605;SDS011;46498;49.968;7.754;2022-11-11T04:00:57;4.53;;;0.75;;
28605;SDS011;46498;49.968;7.754;2022-11-11T04:06:20;3.03;;;0.80;;
28605;SDS011;46498;49.968;7.754;2022-11-11T04:11:58;4.65;;;0.73;;
28605;SDS011;46498;49.968;7.754;2022-11-11T04:17:18;4.00;;;0.52;;
28605;SDS011;46498;49.968;7.754;2022-11-11T04:22:40;3.53;;;0.70;;
28605;SDS011;46498;49.968;7.754;2022-11-11T04:28:00;3.90;;;0.80;;
28605;SDS011;46498;49.968;7.754;2022-11-11T04:33:38;6.18;;;0.85;;
28605;SDS011;46498;49.968;7.754;2022-11-11T04:38:58;5.00;;;0.95;;
28605;SDS011;46498;49.968;7.754;2022-11-11T04:44:36;3.83;;;0.77;;
28605;SDS011;46498;49.968;7.754;2022-11-11T04:50:14;3.17;;;0.85;;
28605;SDS011;46498;49.968;7.754;2022-11-11T04:55:33;4.87;;;0.90;;
28605;SDS011;46498;49.968;7.754;2022-11-11T05:01:11;2.67;;;1.12;;
28605;SDS011;46498;49.968;7.754;2022-11-11T05:08:34;4.18;;;0.88;;
28605;SDS011;46498;49.968;7.754;2022-11-11T05:14:13;3.37;;;0.70;;
28605;SDS011;46498;49.968;7.754;2022-11-11T05:19:51;3.47;;;0.80;;
28605;SDS011;46498;49.968;7.754;2022-11-11T05:25:29;4.68;;;0.82;;
28605;SDS011;46498;49.968;7.754;2022-11-11T05:30:51;4.75;;;0.77;;
28605;SDS011;46498;49.968;7.754;2022-11-11T05:36:11;4.78;;;0.80;;
28605;SDS011;46498;49.968;7.754;2022-11-11T05:41:31;10.27;;;1.67;;
28605;SDS011;46498;49.968;7.754;2022-11-11T05:46:50;8.98;;;0.90;;
28605;SDS011;46498;49.968;7.754;2022-11-11T05:52:11;7.97;;;1.60;;
28605;SDS011;46498;49.968;7.754;2022-11-11T05:57:31;6.40;;;1.17;;
28605;SDS011;46498;49.968;7.754;2022-11-11T06:02:51;3.92;;;0.98;;
28605;SDS011;46498;49.968;7.754;2022-11-11T06:08:10;6.40;;;0.90;;
28605;SDS011;46498;49.968;7.754;2022-11-11T06:13:30;6.35;;;1.20;;
28605;SDS011;46498;49.968;7.754;2022-11-11T06:18:50;6.50;;;1.10;;
28605;SDS011;46498;49.968;7.754;2022-11-11T06:24:10;5.78;;;0.85;;
28605;SDS011;46498;49.968;7.754;2022-11-11T06:29:29;8.73;;;1.40;;
28605;SDS011;46498;49.968;7.754;2022-11-11T06:34:49;2.97;;;0.73;;
28605;SDS011;46498;49.968;7.754;2022-11-11T06:40:09;3.90;;;0.80;;
28605;SDS011;46498;49.968;7.754;2022-11-11T06:45:30;4.43;;;0.80;;
28605;SDS011;46498;49.968;7.754;2022-11-11T06:50:51;6.62;;;1.62;;
28605;SDS011;46498;49.968;7.754;2022-11-11T06:56:11;6.47;;;1.98;;
28605;SDS011;46498;49.968;7.754;2022-11-11T07:01:31;4.20;;;1.15;;
28605;SDS011;46498;49.968;7.754;2022-11-11T07:06:50;8.38;;;1.27;;
28605;SDS011;46498;49.968;7.754;2022-11-11T07:12:10;7.22;;;1.00;;
28605;SDS011;46498;49.968;7.754;2022-11-11T07:17:30;8.77;;;1.85;;
28605;SDS011;46498;49.968;7.754;2022-11-11T07:22:49;7.07;;;1.48;;
28605;SDS011;46498;49.968;7.754;2022-11-11T07:28:09;3.60;;;0.85;;
28605;SDS011;46498;49.968;7.754;2022-11-11T07:33:28;4.03;;;1.20;;
28605;SDS011;46498;49.968;7.754;2022-11-11T07:38:48;3.58;;;0.77;;
28605;SDS011;46498;49.968;7.754;2022-11-11T07:44:07;4.57;;;1.20;;
28605;SDS011;46498;49.968;7.754;2022-11-11T07:49:27;3.12;;;1.35;;
28605;SDS011;46498;49.968;7.754;2022-11-11T07:54:46;6.75;;;1.58;;
28605;SDS011;46498;49.968;7.754;2022-11-11T08:00:07;5.68;;;1.30;;
28605;SDS011;46498;49.968;7.754;2022-11-11T08:05:26;3.50;;;1.20;;
28605;SDS011;46498;49.968;7.754;2022-11-11T08:10:46;9.13;;;1.80;;
28605;SDS011;46498;49.968;7.754;2022-11-11T08:16:09;10.07;;;2.28;;
28605;SDS011;46498;49.968;7.754;2022-11-11T08:21:30;4.10;;;0.93;;
28605;SDS011;46498;49.968;7.754;2022-11-11T08:26:50;10.00;;;1.87;;
28605;SDS011;46498;49.968;7.754;2022-11-11T08:32:11;8.35;;;1.90;;
28605;SDS011;46498;49.968;7.754;2022-11-11T08:37:31;4.25;;;1.95;;
28605;SDS011;46498;49.968;7.754;2022-11-11T08:42:54;10.35;;;3.70;;
28605;SDS011;46498;49.968;7.754;2022-11-11T08:48:15;10.18;;;3.75;;
28605;SDS011;46498;49.968;7.754;2022-11-11T08:53:35;11.93;;;4.55;;
28605;SDS011;46498;49.968;7.754;2022-11-11T08:58:54;8.77;;;2.85;;
28605;SDS011;46498;49.968;7.754;2022-11-11T09:04:14;8.85;;;2.10;;
28605;SDS011;46498;49.968;7.754;2022-11-11T09:10:03;6.07;;;1.80;;
28605;SDS011;46498;49.968;7.754;2022-11-11T09:15:24;7.90;;;2.22;;
28605;SDS011;46498;49.968;7.754;2022-11-11T09:20:44;3.50;;;2.08;;
28605;SDS011;46498;49.968;7.754;2022-11-11T09:26:04;5.00;;;2.30;;
28605;SDS011;46498;49.968;7.754;2022-11-11T09:31:23;4.50;;;2.83;;
28605;SDS011;46498;49.968;7.754;2022-11-11T09:37:12;7.07;;;2.87;;
28605;SDS011;46498;49.968;7.754;2022-11-11T09:42:32;8.35;;;3.08;;
28605;SDS011;46498;49.968;7.754;2022-11-11T09:56:11;7.80;;;3.05;;
28605;SDS011;46498;49.968;7.754;2022-11-11T10:01:54;8.90;;;4.00;;
28605;SDS011;46498;49.968;7.754;2022-11-11T10:07:23;9.95;;;3.53;;
28605;SDS011;46498;49.968;7.754;2022-11-11T10:12:48;8.90;;;3.58;;
28605;SDS011;46498;49.968;7.754;2022-11-11T10:18:25;11.95;;;3.25;;
28605;SDS011;46498;49.968;7.754;2022-11-11T10:23:58;7.43;;;2.85;;
28605;SDS011;46498;49.968;7.754;2022-11-11T10:29:21;6.00;;;3.40;;
28605;SDS011;46498;49.968;7.754;2022-11-11T10:40:22;7.95;;;3.62;;
28605;SDS011;46498;49.968;7.754;2022-11-11T10:46:07;5.37;;;2.90;;
28605;SDS011;46498;49.968;7.754;2022-11-11T10:51:34;16.27;;;3.00;;
28605;SDS011;46498;49.968;7.754;2022-11-11T10:57:16;9.38;;;3.00;;
28605;SDS011;46498;49.968;7.754;2022-11-11T11:02:56;6.90;;;3.12;;
28605;SDS011;46498;49.968;7.754;2022-11-11T11:08:29;6.15;;;2.90;;
28605;SDS011;46498;49.968;7.754;2022-11-11T11:13:54;6.75;;;3.10;;
28605;SDS011;46498;49.968;7.754;2022-11-11T11:19:21;5.40;;;3.22;;
28605;SDS011;46498;49.968;7.754;2022-11-11T11:24:42;7.33;;;3.73;;
28605;SDS011;46498;49.968;7.754;2022-11-11T11:30:10;6.30;;;4.07;;
28605;SDS011;46498;49.968;7.754;2022-11-11T11:35:40;7.87;;;3.63;;
28605;SDS011;46498;49.968;7.754;2022-11-11T11:41:04;7.53;;;4.03;;
28605;SDS011;46498;49.968;7.754;2022-11-11T11:46:45;4.97;;;3.67;;
28605;SDS011;46498;49.968;7.754;2022-11-11T11:52:06;9.27;;;4.22;;
28605;SDS011;46498;49.968;7.754;2022-11-11T11:57:39;6.20;;;4.03;;
28605;SDS011;46498;49.968;7.754;2022-11-11T12:17:09;11.45;;;5.40;;
28605;SDS011;46498;49.968;7.754;2022-11-11T12:29:24;10.07;;;5.57;;
28605;SDS011;46498;49.968;7.754;2022-11-11T12:35:16;8.32;;;5.78;;
28605;SDS011;46498;49.968;7.754;2022-11-11T12:40:53;8.23;;;5.70;;
28605;SDS011;46498;49.968;7.754;2022-11-11T12:46:39;10.93;;;7.03;;
28605;SDS011;46498;49.968;7.754;2022-11-11T12:52:16;13.45;;;7.40;;
28605;SDS011;46498;49.968;7.754;2022-11-11T13:10:26;34.63;;;8.10;;
28605;SDS011;46498;49.968;7.754;2022-11-11T13:18:29;23.25;;;9.55;;
28605;SDS011;46498;49.968;7.754;2022-11-11T13:24:10;80.30;;;12.60;;
28605;SDS011;46498;49.968;7.754;2022-11-11T13:29:52;41.53;;;10.32;;
28605;SDS011;46498;49.968;7.754;2022-11-11T13:36:56;81.43;;;11.38;;
28605;SDS011;46498;49.968;7.754;2022-11-11T13:42:21;61.05;;;10.98;;
28605;SDS011;46498;49.968;7.754;2022-11-11T13:47:45;214.25;;;13.13;;
28605;SDS011;46498;49.968;7.754;2022-11-11T13:53:10;154.32;;;12.13;;
28605;SDS011;46498;49.968;7.754;2022-11-11T13:58:35;91.68;;;11.90;;
28605;SDS011;46498;49.968;7.754;2022-11-11T14:03:59;67.53;;;11.52;;
28605;SDS011;46498;49.968;7.754;2022-11-11T14:27:43;54.20;;;11.30;;
28605;SDS011;46498;49.968;7.754;2022-11-11T14:45:04;19.08;;;10.82;;
28605;SDS011;46498;49.968;7.754;2022-11-11T14:57:09;29.73;;;11.45;;
28605;SDS011;46498;49.968;7.754;2022-11-11T15:02:47;24.52;;;12.10;;
28605;SDS011;46498;49.968;7.754;2022-11-11T15:08:24;49.15;;;13.73;;
28605;SDS011;46498;49.968;7.754;2022-11-11T15:14:03;24.65;;;13.00;;
28605;SDS011;46498;49.968;7.754;2022-11-11T15:27:18;22.10;;;11.32;;
28605;SDS011;46498;49.968;7.754;2022-11-11T15:33:14;19.17;;;10.90;;
28605;SDS011;46498;49.968;7.754;2022-11-11T15:38:43;16.25;;;10.38;;
28605;SDS011;46498;49.968;7.754;2022-11-11T15:44:07;16.45;;;10.10;;
28605;SDS011;46498;49.968;7.754;2022-11-11T15:55:22;12.07;;;7.87;;
28605;SDS011;46498;49.968;7.754;2022-11-11T16:00:44;11.32;;;7.65;;
28605;SDS011;46498;49.968;7.754;2022-11-11T16:06:09;15.18;;;9.45;;
28605;SDS011;46498;49.968;7.754;2022-11-11T16:11:31;13.30;;;8.37;;
28605;SDS011;46498;49.968;7.754;2022-11-11T16:16:59;13.95;;;8.55;;
28605;SDS011;46498;49.968;7.754;2022-11-11T16:22:22;24.87;;;13.38;;
28605;SDS011;46498;49.968;7.754;2022-11-11T16:27:47;24.77;;;13.43;;
28605;SDS011;46498;49.968;7.754;2022-11-11T16:41:19;17.62;;;10.80;;
28605;SDS011;46498;49.968;7.754;2022-11-11T16:46:50;18.62;;;9.88;;
28605;SDS011;46498;49.968;7.754;2022-11-11T16:52:20;20.35;;;11.18;;
28605;SDS011;46498;49.968;7.754;2022-11-11T16:57:43;24.95;;;12.77;;
28605;SDS011;46498;49.968;7.754;2022-11-11T17:03:08;17.25;;;11.65;;
28605;SDS011;46498;49.968;7.754;2022-11-11T17:08:37;18.67;;;9.95;;
28605;SDS011;46498;49.968;7.754;2022-11-11T17:14:01;53.72;;;7.25;;
28605;SDS011;46498;49.968;7.754;2022-11-11T17:19:20;144.75;;;11.98;;
28605;SDS011;46498;49.968;7.754;2022-11-11T17:24:40;82.00;;;9.70;;
28605;SDS011;46498;49.968;7.754;2022-11-11T17:30:00;24.67;;;8.52;;
28605;SDS011;46498;49.968;7.754;2022-11-11T17:35:19;14.07;;;7.78;;
28605;SDS011;46498;49.968;7.754;2022-11-11T17:40:42;53.65;;;8.88;;
28605;SDS011;46498;49.968;7.754;2022-11-11T17:46:03;73.47;;;6.55;;
28605;SDS011;46498;49.968;7.754;2022-11-11T17:51:24;8.48;;;5.03;;
28605;SDS011;46498;49.968;7.754;2022-11-11T17:56:44;8.90;;;5.35;;
28605;SDS011;46498;49.968;7.754;2022-11-11T18:02:04;9.57;;;5.15;;
28605;SDS011;46498;49.968;7.754;2022-11-11T18:07:23;9.23;;;5.18;;
28605;SDS011;46498;49.968;7.754;2022-11-11T18:12:43;9.68;;;5.68;;
28605;SDS011;46498;49.968;7.754;2022-11-11T18:18:03;7.57;;;5.00;;
28605;SDS011;46498;49.968;7.754;2022-11-11T18:23:22;14.82;;;8.57;;
28605;SDS011;46498;49.968;7.754;2022-11-11T18:28:42;12.98;;;8.13;;
28605;SDS011;46498;49.968;7.754;2022-11-11T18:34:02;14.15;;;7.87;;
28605;SDS011;46498;49.968;7.754;2022-11-11T18:39:25;14.70;;;7.90;;
28605;SDS011;46498;49.968;7.754;2022-11-11T18:44:44;12.73;;;6.80;;
28605;SDS011;46498;49.968;7.754;2022-11-11T18:50:04;41.88;;;9.60;;
28605;SDS011;46498;49.968;7.754;2022-11-11T18:55:24;14.00;;;8.30;;
28605;SDS011;46498;49.968;7.754;2022-11-11T19:00:45;13.62;;;7.60;;
28605;SDS011;46498;49.968;7.754;2022-11-11T19:06:05;11.57;;;6.80;;
28605;SDS011;46498;49.968;7.754;2022-11-11T19:11:26;8.30;;;5.25;;
28605;SDS011;46498;49.968;7.754;2022-11-11T19:16:47;8.05;;;4.93;;
28605;SDS011;46498;49.968;7.754;2022-11-11T19:22:09;7.93;;;4.57;;
28605;SDS011;46498;49.968;7.754;2022-11-11T19:27:28;11.63;;;5.45;;
28605;SDS011;46498;49.968;7.754;2022-11-11T19:32:48;17.17;;;7.62;;
28605;SDS011;46498;49.968;7.754;2022-11-11T19:38:07;14.77;;;8.20;;
28605;SDS011;46498;49.968;7.754;2022-11-11T19:43:27;19.00;;;9.27;;
28605;SDS011;46498;49.968;7.754;2022-11-11T19:48:47;25.33;;;11.10;;
28605;SDS011;46498;49.968;7.754;2022-11-11T19:54:10;19.75;;;9.10;;
28605;SDS011;46498;49.968;7.754;2022-11-11T19:59:29;100.45;;;8.35;;
28605;SDS011;46498;49.968;7.754;2022-11-11T20:04:49;9.30;;;5.53;;
28605;SDS011;46498;49.968;7.754;2022-11-11T20:10:08;11.70;;;6.20;;
28605;SDS011;46498;49.968;7.754;2022-11-11T20:15:28;19.50;;;8.10;;
28605;SDS011;46498;49.968;7.754;2022-11-11T20:20:48;8.63;;;4.32;;
28605;SDS011;46498;49.968;7.754;2022-11-11T20:26:11;9.75;;;3.78;;
28605;SDS011;46498;49.968;7.754;2022-11-11T20:31:32;11.12;;;5.00;;
28605;SDS011;46498;49.968;7.754;2022-11-11T20:36:51;14.90;;;6.03;;
28605;SDS011;46498;49.968;7.754;2022-11-11T20:42:11;7.68;;;3.92;;
28605;SDS011;46498;49.968;7.754;2022-11-11T20:47:31;8.00;;;3.67;;
28605;SDS011;46498;49.968;7.754;2022-11-11T20:52:53;12.13;;;5.25;;
28605;SDS011;46498;49.968;7.754;2022-11-11T20:58:12;13.05;;;6.18;;
28605;SDS011;46498;49.968;7.754;2022-11-11T21:03:32;20.27;;;6.78;;
28605;SDS011;46498;49.968;7.754;2022-11-11T21:08:52;4.90;;;2.62;;
28605;SDS011;46498;49.968;7.754;2022-11-11T21:14:11;5.75;;;2.33;;
28605;SDS011;46498;49.968;7.754;2022-11-11T21:19:34;3.30;;;2.23;;
28605;SDS011;46498;49.968;7.754;2022-11-11T21:24:54;5.20;;;2.37;;
28605;SDS011;46498;49.968;7.754;2022-11-11T21:30:17;10.63;;;4.87;;
28605;SDS011;46498;49.968;7.754;2022-11-11T21:35:37;11.73;;;5.50;;
28605;SDS011;46498;49.968;7.754;2022-11-11T21:41:08;12.27;;;3.80;;
28605;SDS011;46498;49.968;7.754;2022-11-11T21:46:32;17.00;;;5.93;;
28605;SDS011;46498;49.968;7.754;2022-11-11T21:51:55;13.43;;;4.90;;
28605;SDS011;46498;49.968;7.754;2022-11-11T21:57:14;19.62;;;5.40;;
28605;SDS011;46498;49.968;7.754;2022-11-11T22:02:36;12.57;;;4.85;;
28605;SDS011;46498;49.968;7.754;2022-11-11T22:07:56;16.90;;;6.12;;
28605;SDS011;46498;49.968;7.754;2022-11-11T22:13:15;19.35;;;9.93;;
28605;SDS011;46498;49.968;7.754;2022-11-11T22:18:34;22.40;;;10.60;;
28605;SDS011;46498;49.968;7.754;2022-11-11T22:23:58;22.08;;;10.15;;
28605;SDS011;46498;49.968;7.754;2022-11-11T22:29:20;16.92;;;7.75;;
28605;SDS011;46498;49.968;7.754;2022-11-11T22:34:40;26.80;;;11.52;;
28605;SDS011;46498;49.968;7.754;2022-11-11T22:39:59;37.28;;;14.45;;
28605;SDS011;46498;49.968;7.754;2022-11-11T22:45:19;31.75;;;13.20;;
28605;SDS011;46498;49.968;7.754;2022-11-11T22:50:38;34.60;;;13.45;;
28605;SDS011;46498;49.968;7.754;2022-11-11T22:56:04;33.20;;;6.90;;
28605;SDS011;46498;49.968;7.754;2022-11-11T23:01:27;13.13;;;5.22;;
28605;SDS011;46498;49.968;7.754;2022-11-11T23:06:53;11.35;;;4.75;;
28605;SDS011;46498;49.968;7.754;2022-11-11T23:12:13;16.42;;;6.22;;
28605;SDS011;46498;49.968;7.754;2022-11-11T23:17:33;15.10;;;7.07;;
28605;SDS011;46498;49.968;7.754;2022-11-11T23:22:52;21.65;;;8.88;;
28605;SDS011;46498;49.968;7.754;2022-11-11T23:28:12;18.50;;;7.75;;
28605;SDS011;46498;49.968;7.754;2022-11-11T23:33:32;16.73;;;7.32;;
28605;SDS011;46498;49.968;7.754;2022-11-11T23:38:52;16.83;;;7.68;;
28605;SDS011;46498;49.968;7.754;2022-11-11T23:44:12;20.92;;;8.18;;
28605;SDS011;46498;49.968;7.754;2022-11-11T23:49:32;23.12;;;9.80;;
28605;SDS011;46498;49.968;7.754;2022-11-11T23:54:51;18.23;;;7.80;;
